Terminal Aerodrome Forecast
Issued by NWS

Home | Current Version | Previous Version | Text Only | Print | Product List | Glossary On
Versions: 1 2 3 4 5 6 7 8 9 10 11 12 13 14 15 16 17
000
FTUS44 KTSA 250520
TAFXNA
TAF
KXNA 250520Z 2506/2606 36003KT P6SM BKN110
     FM251500 35006KT P6SM BKN250
     FM260000 00000KT P6SM BKN250=

USA.gov is the U.S. government's official web portal to all federal, state and local government web resources and services.